Time;durP1;ratioP1;P1;durP2;ratioP2;P2;SDS_P1;SDS_P2;PMS_P1;PMS_P2;Temp;Humidity;BMP_temperature;BMP_pressure;BME280_temperature;BME280_humidity;BME280_pressure;Samples;Min_cycle;Max_cycle;Signal;HPM_P1;HPM_P2
2023/08/07 00:00:43;;;;;;;10.93;3.67;;;;;;;;;;5055793;28;20276;-64
2023/08/07 00:03:11;;;;;;;13.40;3.93;;;;;;;;;;5055350;28;20175;-65
2023/08/07 00:05:37;;;;;;;14.37;4.23;;;;;;;;;;5055351;28;20195;-65
2023/08/07 00:08:03;;;;;;;13.50;4.00;;;;;;;;;;5055391;28;20555;-65
2023/08/07 00:10:29;;;;;;;16.80;4.23;;;;;;;;;;5055006;28;20202;-65
2023/08/07 00:12:55;;;;;;;13.33;3.70;;;;;;;;;;5055060;28;20175;-65
2023/08/07 00:15:21;;;;;;;11.60;3.77;;;;;;;;;;5055024;28;20640;-65
2023/08/07 00:17:47;;;;;;;9.70;3.67;;;;;;;;;;5054823;28;20178;-65
2023/08/07 00:20:13;;;;;;;13.93;3.97;;;;;;;;;;5054813;28;20178;-65
2023/08/07 00:22:39;;;;;;;12.50;3.93;;;;;;;;;;5055026;28;20325;-65
2023/08/07 00:25:05;;;;;;;14.77;3.87;;;;;;;;;;5054605;28;20305;-65
2023/08/07 00:27:31;;;;;;;11.73;3.90;;;;;;;;;;5055367;28;20721;-66
2023/08/07 00:29:58;;;;;;;9.87;3.70;;;;;;;;;;5053332;28;20206;-65
2023/08/07 00:32:24;;;;;;;10.33;3.57;;;;;;;;;;5054682;28;20686;-65
2023/08/07 00:34:50;;;;;;;11.90;4.10;;;;;;;;;;5053305;28;20202;-65
2023/08/07 00:37:16;;;;;;;17.03;3.80;;;;;;;;;;5054621;28;20170;-65
2023/08/07 00:39:42;;;;;;;8.87;3.03;;;;;;;;;;5054547;28;20178;-65
2023/08/07 00:42:08;;;;;;;12.10;3.27;;;;;;;;;;5054599;28;20285;-65
2023/08/07 00:44:34;;;;;;;17.60;3.30;;;;;;;;;;5054468;28;20690;-65
2023/08/07 00:46:59;;;;;;;11.47;3.37;;;;;;;;;;5054375;28;20182;-65
2023/08/07 00:49:26;;;;;;;14.63;3.93;;;;;;;;;;5054564;28;20209;-65
2023/08/07 00:51:52;;;;;;;12.63;3.07;;;;;;;;;;5054797;28;20633;-65
2023/08/07 00:54:19;;;;;;;9.23;3.20;;;;;;;;;;5055046;28;20175;-65
2023/08/07 00:56:45;;;;;;;6.37;2.70;;;;;;;;;;5054796;28;20265;-65
2023/08/07 00:59:11;;;;;;;10.67;3.13;;;;;;;;;;5054353;28;20232;-66
2023/08/07 01:01:37;;;;;;;11.93;3.53;;;;;;;;;;5053099;28;20277;-65
2023/08/07 01:04:03;;;;;;;14.63;3.80;;;;;;;;;;5053842;28;20190;-65
2023/08/07 01:06:29;;;;;;;11.93;4.00;;;;;;;;;;5054270;28;20261;-65
2023/08/07 01:08:55;;;;;;;9.67;3.77;;;;;;;;;;5052782;28;20638;-65
2023/08/07 01:11:31;;;;;;;17.33;3.90;;;;;;;;;;5054695;28;20206;-65
2023/08/07 01:14:02;;;;;;;15.90;3.80;;;;;;;;;;5054116;28;20170;-66
2023/08/07 01:16:32;;;;;;;13.80;3.70;;;;;;;;;;5054499;28;20285;-64
2023/08/07 01:18:59;;;;;;;14.13;4.20;;;;;;;;;;5054888;28;20640;-65
2023/08/07 01:21:25;;;;;;;20.43;4.60;;;;;;;;;;5054437;28;20601;-65
2023/08/07 01:23:51;;;;;;;11.30;3.50;;;;;;;;;;5054941;28;20236;-66
2023/08/07 01:26:19;;;;;;;13.50;4.00;;;;;;;;;;5054720;28;20738;-66
2023/08/07 01:29:08;;;;;;;9.40;3.47;;;;;;;;;;5055085;28;20190;-66
2023/08/07 01:31:35;;;;;;;17.10;3.93;;;;;;;;;;5051267;28;20271;-66
2023/08/07 01:34:06;;;;;;;8.77;3.70;;;;;;;;;;5064688;28;20186;-66
2023/08/07 01:36:32;;;;;;;13.63;3.40;;;;;;;;;;5063548;28;20174;-66
2023/08/07 01:39:00;;;;;;;9.30;2.83;;;;;;;;;;5060855;28;20221;-66
2023/08/07 01:41:26;;;;;;;19.10;3.30;;;;;;;;;;5062427;28;20175;-66
2023/08/07 01:43:52;;;;;;;7.83;3.00;;;;;;;;;;5062128;28;20174;-65
2023/08/07 01:46:19;;;;;;;9.90;3.53;;;;;;;;;;5057280;28;20198;-66
2023/08/07 01:48:45;;;;;;;12.17;4.30;;;;;;;;;;5057363;28;20177;-67
2023/08/07 01:51:14;;;;;;;8.90;3.70;;;;;;;;;;5057944;28;20229;-66
2023/08/07 01:53:40;;;;;;;15.50;3.40;;;;;;;;;;5056023;28;20675;-66
2023/08/07 01:56:06;;;;;;;12.90;3.87;;;;;;;;;;5056830;28;20202;-66
2023/08/07 01:58:31;;;;;;;9.43;3.43;;;;;;;;;;5054751;28;20663;-66
2023/08/07 02:00:57;;;;;;;17.43;4.27;;;;;;;;;;5053413;28;20186;-66
2023/08/07 02:03:23;;;;;;;12.07;4.13;;;;;;;;;;5051936;28;20685;-66
2023/08/07 02:05:49;;;;;;;9.30;3.03;;;;;;;;;;5053050;28;20198;-67
2023/08/07 02:08:15;;;;;;;15.97;4.07;;;;;;;;;;5051933;28;20679;-66
2023/08/07 02:10:41;;;;;;;11.57;4.10;;;;;;;;;;5052963;28;20198;-66
2023/08/07 02:13:10;;;;;;;11.20;3.83;;;;;;;;;;5051869;28;20715;-66
2023/08/07 02:15:36;;;;;;;8.03;3.70;;;;;;;;;;5054599;28;20202;-65
2023/08/07 02:18:02;;;;;;;11.57;4.57;;;;;;;;;;5057326;28;20177;-66
2023/08/07 02:20:28;;;;;;;9.93;3.83;;;;;;;;;;5055747;28;20281;-66
2023/08/07 02:22:54;;;;;;;13.80;4.10;;;;;;;;;;5057351;28;20178;-66
2023/08/07 02:25:20;;;;;;;13.63;4.50;;;;;;;;;;5057094;28;20214;-66
2023/08/07 02:27:45;;;;;;;13.63;4.40;;;;;;;;;;5056878;28;20247;-66
2023/08/07 02:30:12;;;;;;;16.43;4.60;;;;;;;;;;5056946;28;20233;-66
2023/08/07 02:32:38;;;;;;;14.37;4.60;;;;;;;;;;5056693;28;20277;-66
2023/08/07 02:35:04;;;;;;;14.13;4.60;;;;;;;;;;5055408;28;20206;-66
2023/08/07 02:37:30;;;;;;;15.00;4.57;;;;;;;;;;5056600;28;20278;-66
2023/08/07 02:39:56;;;;;;;10.30;3.83;;;;;;;;;;5057276;28;20205;-66
2023/08/07 02:42:21;;;;;;;12.00;4.60;;;;;;;;;;5057140;28;20181;-66
2023/08/07 02:44:47;;;;;;;13.77;4.30;;;;;;;;;;5055397;28;20213;-65
2023/08/07 02:47:13;;;;;;;13.10;4.70;;;;;;;;;;5055303;28;20236;-65
2023/08/07 02:49:39;;;;;;;13.93;4.40;;;;;;;;;;5055090;28;20259;-66
2023/08/07 02:52:05;;;;;;;13.67;4.93;;;;;;;;;;5056557;28;20179;-65
2023/08/07 02:54:31;;;;;;;17.00;5.33;;;;;;;;;;5056468;28;20224;-65
2023/08/07 02:56:58;;;;;;;13.83;4.80;;;;;;;;;;5056740;28;20179;-66
2023/08/07 02:59:23;;;;;;;16.37;4.70;;;;;;;;;;5055028;28;20182;-66
2023/08/07 03:01:50;;;;;;;19.50;5.03;;;;;;;;;;5055399;28;20272;-66
2023/08/07 03:04:17;;;;;;;17.17;5.27;;;;;;;;;;5056750;28;20209;-65
2023/08/07 03:06:43;;;;;;;21.53;5.03;;;;;;;;;;5056652;28;20208;-65
2023/08/07 03:09:08;;;;;;;21.70;5.30;;;;;;;;;;5056531;28;20170;-66
2023/08/07 03:11:34;;;;;;;18.33;4.33;;;;;;;;;;5056298;28;20743;-65
2023/08/07 03:14:00;;;;;;;13.07;4.63;;;;;;;;;;5055175;28;20583;-65
2023/08/07 03:16:26;;;;;;;19.90;4.40;;;;;;;;;;5055335;28;20198;-65
2023/08/07 03:18:52;;;;;;;16.47;4.70;;;;;;;;;;5056350;28;20632;-65
2023/08/07 03:21:18;;;;;;;17.73;4.57;;;;;;;;;;5056861;28;20551;-66
2023/08/07 03:23:44;;;;;;;26.93;4.80;;;;;;;;;;5056769;28;20194;-65
2023/08/07 03:26:12;;;;;;;14.67;4.73;;;;;;;;;;5069366;22;20249;-71
2023/08/07 03:28:38;;;;;;;17.97;5.03;;;;;;;;;;5034580;28;20175;-70
2023/08/07 03:31:04;;;;;;;21.30;5.87;;;;;;;;;;5035572;28;20211;-70
2023/08/07 03:33:31;;;;;;;24.33;4.60;;;;;;;;;;5035743;28;20250;-70
2023/08/07 03:35:56;;;;;;;22.33;5.40;;;;;;;;;;5036425;28;20664;-71
2023/08/07 03:38:23;;;;;;;20.37;5.60;;;;;;;;;;5037505;28;20258;-71
2023/08/07 03:40:48;;;;;;;18.90;4.77;;;;;;;;;;5035746;28;20247;-71
2023/08/07 03:43:14;;;;;;;21.30;5.93;;;;;;;;;;5035412;28;20187;-71
2023/08/07 03:45:40;;;;;;;16.63;5.67;;;;;;;;;;5035532;28;20199;-70
2023/08/07 03:48:07;;;;;;;14.93;5.30;;;;;;;;;;5033951;28;20187;-71
2023/08/07 03:50:36;;;;;;;19.57;5.23;;;;;;;;;;5034349;28;20298;-69
2023/08/07 03:53:02;;;;;;;16.47;5.17;;;;;;;;;;5033914;28;20266;-71
2023/08/07 03:55:28;;;;;;;13.57;4.63;;;;;;;;;;5033768;28;20660;-72
2023/08/07 03:57:54;;;;;;;14.93;5.17;;;;;;;;;;5033722;28;20560;-72
2023/08/07 04:00:20;;;;;;;13.77;4.83;;;;;;;;;;5033739;28;20187;-72
2023/08/07 04:02:46;;;;;;;18.57;5.47;;;;;;;;;;5034962;28;20230;-71
2023/08/07 04:05:12;;;;;;;18.73;5.17;;;;;;;;;;5034873;28;20649;-71
2023/08/07 04:07:38;;;;;;;14.13;4.87;;;;;;;;;;5034845;28;20261;-71
2023/08/07 04:10:04;;;;;;;11.10;4.17;;;;;;;;;;5033627;28;20699;-71
2023/08/07 04:12:31;;;;;;;18.13;5.40;;;;;;;;;;5034900;28;20175;-71
2023/08/07 04:14:57;;;;;;;12.87;4.37;;;;;;;;;;5034713;28;20183;-71
2023/08/07 04:17:22;;;;;;;15.87;5.47;;;;;;;;;;5033357;28;20210;-72
2023/08/07 04:19:48;;;;;;;19.30;5.23;;;;;;;;;;5035289;28;20175;-71
2023/08/07 04:22:14;;;;;;;12.47;4.70;;;;;;;;;;5034803;28;20228;-71
2023/08/07 04:24:40;;;;;;;15.17;4.57;;;;;;;;;;5034713;28;20303;-72
2023/08/07 04:27:08;;;;;;;18.80;4.80;;;;;;;;;;5049709;28;20210;-72
2023/08/07 04:29:34;;;;;;;17.77;4.93;;;;;;;;;;5056562;28;20252;-72
2023/08/07 04:32:00;;;;;;;22.60;5.00;;;;;;;;;;5055112;28;20257;-70
2023/08/07 04:34:26;;;;;;;18.27;5.67;;;;;;;;;;5054686;28;20181;-70
2023/08/07 04:36:53;;;;;;;13.37;5.00;;;;;;;;;;5036736;28;20273;-70
2023/08/07 04:39:19;;;;;;;13.07;4.90;;;;;;;;;;5054707;28;20632;-69
2023/08/07 04:41:45;;;;;;;12.13;4.87;;;;;;;;;;5036641;28;20189;-69
2023/08/07 04:44:11;;;;;;;17.20;5.17;;;;;;;;;;5036504;28;20202;-69
2023/08/07 04:46:37;;;;;;;14.93;4.93;;;;;;;;;;5036294;28;20228;-69
2023/08/07 04:49:03;;;;;;;19.00;5.23;;;;;;;;;;5054066;28;20213;-70
2023/08/07 04:51:31;;;;;;;12.60;4.50;;;;;;;;;;5054553;28;20221;-70
2023/08/07 04:53:57;;;;;;;15.27;5.33;;;;;;;;;;5054331;28;20201;-70
2023/08/07 04:56:23;;;;;;;16.10;5.27;;;;;;;;;;5035983;28;20553;-70
2023/08/07 04:58:49;;;;;;;13.53;5.10;;;;;;;;;;5036183;28;20193;-70
2023/08/07 05:01:15;;;;;;;14.20;4.97;;;;;;;;;;5036098;28;20682;-70
2023/08/07 05:03:41;;;;;;;15.03;5.43;;;;;;;;;;5035804;28;20564;-69
2023/08/07 05:06:08;;;;;;;11.97;5.33;;;;;;;;;;5036132;28;20321;-70
2023/08/07 05:08:34;;;;;;;15.43;5.60;;;;;;;;;;5053858;28;20225;-70
2023/08/07 05:11:00;;;;;;;23.77;6.13;;;;;;;;;;5054139;28;20202;-70
2023/08/07 05:13:26;;;;;;;16.97;5.60;;;;;;;;;;5054332;28;20174;-70
2023/08/07 05:15:52;;;;;;;18.00;5.83;;;;;;;;;;5054424;28;20200;-70
2023/08/07 05:18:18;;;;;;;19.97;6.10;;;;;;;;;;5037036;28;20265;-70
2023/08/07 05:20:45;;;;;;;17.37;5.63;;;;;;;;;;5036979;28;20261;-70
2023/08/07 05:23:11;;;;;;;22.43;5.67;;;;;;;;;;5056058;28;20301;-70
2023/08/07 05:25:37;;;;;;;16.93;5.50;;;;;;;;;;5035400;28;21114;-70
2023/08/07 05:28:03;;;;;;;15.27;5.47;;;;;;;;;;5054108;28;20211;-70
2023/08/07 05:30:29;;;;;;;17.50;5.67;;;;;;;;;;5053576;28;20695;-70
2023/08/07 05:32:55;;;;;;;18.43;5.43;;;;;;;;;;5053454;28;20179;-70
2023/08/07 05:35:21;;;;;;;19.37;6.87;;;;;;;;;;5035444;28;20236;-70
2023/08/07 05:37:47;;;;;;;15.80;6.23;;;;;;;;;;5035459;28;20252;-70
2023/08/07 05:40:13;;;;;;;11.40;5.23;;;;;;;;;;5053297;28;20206;-70
2023/08/07 05:42:40;;;;;;;17.30;5.70;;;;;;;;;;5035326;28;20186;-70
2023/08/07 05:45:06;;;;;;;19.13;5.30;;;;;;;;;;5035200;28;20276;-70
2023/08/07 05:47:32;;;;;;;15.13;6.13;;;;;;;;;;5035166;28;20680;-69
2023/08/07 05:49:58;;;;;;;18.37;6.73;;;;;;;;;;5034812;28;20234;-69
2023/08/07 05:52:24;;;;;;;17.70;6.33;;;;;;;;;;5052984;28;20213;-69
2023/08/07 05:54:50;;;;;;;15.17;6.00;;;;;;;;;;5035621;28;20185;-69
2023/08/07 05:57:18;;;;;;;9.00;4.50;;;;;;;;;;5035101;28;20661;-69
2023/08/07 05:59:44;;;;;;;15.53;5.50;;;;;;;;;;5052955;28;20214;-70
2023/08/07 06:02:13;;;;;;;8.87;4.17;;;;;;;;;;5035372;28;20204;-70
2023/08/07 06:04:40;;;;;;;12.77;5.67;;;;;;;;;;5052932;28;20189;-70
2023/08/07 06:07:07;;;;;;;19.70;5.97;;;;;;;;;;5035807;28;20344;-70
2023/08/07 06:09:33;;;;;;;11.73;5.40;;;;;;;;;;5035032;28;20283;-70
2023/08/07 06:11:59;;;;;;;13.73;5.33;;;;;;;;;;5053019;28;20170;-69
2023/08/07 06:14:25;;;;;;;13.73;5.03;;;;;;;;;;5053734;28;20300;-70
2023/08/07 06:16:51;;;;;;;15.50;5.70;;;;;;;;;;5035107;28;20205;-70
2023/08/07 06:19:17;;;;;;;13.37;6.17;;;;;;;;;;5052580;28;20183;-69
2023/08/07 06:21:43;;;;;;;14.37;5.40;;;;;;;;;;5052997;28;20177;-70
2023/08/07 06:24:09;;;;;;;13.73;5.60;;;;;;;;;;5035279;28;20228;-69
2023/08/07 06:26:35;;;;;;;12.97;4.83;;;;;;;;;;5052652;28;20218;-70
2023/08/07 06:29:01;;;;;;;8.30;4.93;;;;;;;;;;5053052;28;20190;-70
2023/08/07 06:31:27;;;;;;;13.67;5.10;;;;;;;;;;5052824;28;20192;-69
2023/08/07 06:33:53;;;;;;;15.30;5.00;;;;;;;;;;5034941;28;20213;-70
2023/08/07 06:36:19;;;;;;;13.60;5.03;;;;;;;;;;5053252;28;20209;-70
2023/08/07 06:38:45;;;;;;;12.90;5.43;;;;;;;;;;5034838;28;20674;-70
2023/08/07 06:41:11;;;;;;;13.23;5.30;;;;;;;;;;5052952;28;20659;-70
2023/08/07 06:43:37;;;;;;;18.83;5.43;;;;;;;;;;5053496;28;20620;-70
2023/08/07 06:46:03;;;;;;;14.87;6.17;;;;;;;;;;5034927;28;20202;-69
2023/08/07 06:48:29;;;;;;;17.50;6.33;;;;;;;;;;5052932;28;20546;-70
2023/08/07 06:50:55;;;;;;;15.13;6.10;;;;;;;;;;5035145;28;20206;-70
2023/08/07 06:53:21;;;;;;;11.67;5.00;;;;;;;;;;5035858;28;20561;-70
2023/08/07 06:55:47;;;;;;;15.00;5.90;;;;;;;;;;5053378;28;20672;-70
2023/08/07 06:58:13;;;;;;;14.83;5.77;;;;;;;;;;5035417;28;20206;-70
2023/08/07 07:00:39;;;;;;;13.73;5.53;;;;;;;;;;5035541;28;20250;-71
2023/08/07 07:03:05;;;;;;;12.50;5.23;;;;;;;;;;5038360;28;20182;-70
2023/08/07 07:05:32;;;;;;;13.00;5.47;;;;;;;;;;5057413;28;20171;-71
2023/08/07 07:07:59;;;;;;;15.53;6.10;;;;;;;;;;5056868;28;20228;-71
2023/08/07 07:10:25;;;;;;;18.10;6.17;;;;;;;;;;5056338;28;20202;-70
2023/08/07 07:12:51;;;;;;;15.70;6.50;;;;;;;;;;5038453;28;20265;-71
2023/08/07 07:15:17;;;;;;;13.37;5.90;;;;;;;;;;5056208;28;20178;-71
2023/08/07 07:17:43;;;;;;;13.27;5.23;;;;;;;;;;5056332;28;20178;-70
2023/08/07 07:20:11;;;;;;;14.13;5.50;;;;;;;;;;5038211;28;20640;-70
2023/08/07 07:22:36;;;;;;;15.60;5.43;;;;;;;;;;5056118;28;20618;-71
2023/08/07 07:25:03;;;;;;;13.13;5.90;;;;;;;;;;5056622;28;20178;-70
2023/08/07 07:27:28;;;;;;;13.23;5.20;;;;;;;;;;5055796;28;20329;-70
2023/08/07 07:29:54;;;;;;;14.80;4.70;;;;;;;;;;5056189;28;20262;-71
2023/08/07 07:32:20;;;;;;;14.53;5.50;;;;;;;;;;5055883;28;20181;-71
2023/08/07 07:34:46;;;;;;;14.50;5.80;;;;;;;;;;5038617;28;20262;-71
2023/08/07 07:37:14;;;;;;;16.83;5.27;;;;;;;;;;5055850;28;20284;-70
2023/08/07 07:39:40;;;;;;;20.30;6.03;;;;;;;;;;5038141;28;20178;-71
2023/08/07 07:42:07;;;;;;;9.40;4.70;;;;;;;;;;5055871;28;20548;-71
2023/08/07 07:44:35;;;;;;;16.10;5.70;;;;;;;;;;5037884;28;20182;-70
2023/08/07 07:47:01;;;;;;;16.07;5.50;;;;;;;;;;5037702;28;20202;-70
2023/08/07 07:49:27;;;;;;;16.20;6.30;;;;;;;;;;5037414;28;20213;-71
2023/08/07 07:51:53;;;;;;;10.83;5.43;;;;;;;;;;5055322;28;20598;-71
2023/08/07 07:54:19;;;;;;;14.60;5.23;;;;;;;;;;5055225;28;20175;-71
2023/08/07 07:56:45;;;;;;;12.40;4.93;;;;;;;;;;5055567;28;20194;-71
2023/08/07 07:59:12;;;;;;;14.47;5.40;;;;;;;;;;5038286;28;20754;-72
2023/08/07 08:01:38;;;;;;;12.97;5.20;;;;;;;;;;5055227;28;20628;-71
2023/08/07 08:04:04;;;;;;;13.17;4.93;;;;;;;;;;5037107;28;20179;-71
2023/08/07 08:06:30;;;;;;;10.27;4.53;;;;;;;;;;5055198;28;20571;-71
2023/08/07 08:08:56;;;;;;;15.50;5.10;;;;;;;;;;5055011;28;20182;-72
2023/08/07 08:11:22;;;;;;;13.53;4.73;;;;;;;;;;5054941;28;20277;-71
2023/08/07 08:13:48;;;;;;;12.03;5.17;;;;;;;;;;5054460;28;20672;-71
2023/08/07 08:16:15;;;;;;;12.73;4.63;;;;;;;;;;5054835;28;20578;-71
2023/08/07 08:18:41;;;;;;;8.97;4.53;;;;;;;;;;5036758;28;20636;-71
2023/08/07 08:21:07;;;;;;;14.07;4.37;;;;;;;;;;5054600;28;20189;-71
2023/08/07 08:23:33;;;;;;;10.40;4.40;;;;;;;;;;5054639;28;20178;-72
2023/08/07 08:25:59;;;;;;;9.23;3.50;;;;;;;;;;5036563;28;20222;-72
2023/08/07 08:28:25;;;;;;;17.00;5.03;;;;;;;;;;5036657;28;20182;-71
2023/08/07 08:30:51;;;;;;;12.87;3.90;;;;;;;;;;5054348;28;20198;-71
2023/08/07 08:33:17;;;;;;;20.03;4.63;;;;;;;;;;5036475;28;20269;-71
2023/08/07 08:35:43;;;;;;;10.77;4.27;;;;;;;;;;5054329;28;20225;-71
2023/08/07 08:38:09;;;;;;;7.10;3.90;;;;;;;;;;5054238;28;20206;-71
2023/08/07 08:40:35;;;;;;;8.27;3.60;;;;;;;;;;5036262;28;20193;-71
2023/08/07 08:43:01;;;;;;;12.67;4.67;;;;;;;;;;5036532;28;20265;-70
2023/08/07 08:45:28;;;;;;;12.07;3.60;;;;;;;;;;5036352;28;20281;-72
2023/08/07 08:47:55;;;;;;;7.07;3.97;;;;;;;;;;5054125;28;20175;-71
2023/08/07 08:50:22;;;;;;;7.90;3.30;;;;;;;;;;5056184;28;20672;-71
2023/08/07 08:52:48;;;;;;;8.40;4.30;;;;;;;;;;5036286;28;20217;-71
2023/08/07 08:55:14;;;;;;;9.40;3.77;;;;;;;;;;5053899;28;20175;-71
2023/08/07 08:57:40;;;;;;;9.87;3.80;;;;;;;;;;5053967;28;20257;-70
2023/08/07 09:00:15;;;;;;;10.77;4.07;;;;;;;;;;5036142;28;20265;-70
2023/08/07 09:02:42;;;;;;;9.83;3.80;;;;;;;;;;5036312;28;20596;-70
2023/08/07 09:05:09;;;;;;;12.70;4.80;;;;;;;;;;5036011;28;20273;-70
2023/08/07 09:07:35;;;;;;;10.33;4.40;;;;;;;;;;5053760;28;20198;-70
2023/08/07 09:10:03;;;;;;;8.70;4.10;;;;;;;;;;5035968;28;20260;-70
2023/08/07 09:12:30;;;;;;;10.53;4.57;;;;;;;;;;5053690;28;20185;-70
2023/08/07 09:14:59;;;;;;;12.33;4.73;;;;;;;;;;5053968;28;20175;-70
2023/08/07 09:17:27;;;;;;;9.20;4.53;;;;;;;;;;5035939;28;20285;-70
2023/08/07 09:19:54;;;;;;;8.17;4.30;;;;;;;;;;5054551;28;20178;-70
2023/08/07 09:22:20;;;;;;;10.43;4.07;;;;;;;;;;5054638;28;20655;-70
2023/08/07 09:24:46;;;;;;;10.93;4.57;;;;;;;;;;5054052;28;20185;-70
2023/08/07 09:27:12;;;;;;;11.27;4.50;;;;;;;;;;5036650;28;20313;-70
2023/08/07 09:29:41;;;;;;;13.00;4.50;;;;;;;;;;5054189;28;20238;-70
2023/08/07 09:32:18;;;;;;;14.10;4.83;;;;;;;;;;5036635;28;20229;-70
2023/08/07 09:34:44;;;;;;;14.70;5.50;;;;;;;;;;5053711;28;20158;-70
2023/08/07 09:37:10;;;;;;;12.87;4.17;;;;;;;;;;5035434;28;20191;-70
2023/08/07 09:39:36;;;;;;;13.60;4.77;;;;;;;;;;5035407;28;20189;-70
2023/08/07 09:42:05;;;;;;;12.13;4.73;;;;;;;;;;5036594;28;20189;-70
2023/08/07 09:44:39;;;;;;;10.77;3.80;;;;;;;;;;5053492;28;20232;-70
2023/08/07 09:47:15;;;;;;;10.20;3.77;;;;;;;;;;5053135;28;20234;-70
2023/08/07 09:49:41;;;;;;;14.90;4.97;;;;;;;;;;5035318;28;20671;-71
2023/08/07 09:52:08;;;;;;;17.13;5.73;;;;;;;;;;5035168;28;20287;-71
2023/08/07 09:54:34;;;;;;;11.03;4.70;;;;;;;;;;5053059;28;20553;-71
2023/08/07 09:57:01;;;;;;;15.33;5.90;;;;;;;;;;5052792;28;20244;-70
2023/08/07 09:59:28;;;;;;;17.27;7.20;;;;;;;;;;5053433;28;20189;-71
2023/08/07 10:01:54;;;;;;;19.47;4.93;;;;;;;;;;5035026;28;20247;-71
2023/08/07 10:04:21;;;;;;;13.90;4.63;;;;;;;;;;5035048;28;20182;-71
2023/08/07 10:06:47;;;;;;;10.50;4.10;;;;;;;;;;5053233;28;20209;-70
2023/08/07 10:09:13;;;;;;;17.53;5.90;;;;;;;;;;5035284;28;20178;-70
2023/08/07 10:11:40;;;;;;;13.60;4.07;;;;;;;;;;5053693;28;20698;-70
2023/08/07 10:14:06;;;;;;;15.87;4.23;;;;;;;;;;5053818;28;20253;-70
2023/08/07 10:16:32;;;;;;;12.27;5.07;;;;;;;;;;5053275;28;20274;-70
2023/08/07 10:18:58;;;;;;;10.53;3.43;;;;;;;;;;5053038;28;20175;-70
2023/08/07 10:21:25;;;;;;;9.40;3.50;;;;;;;;;;5052868;28;20220;-69
2023/08/07 10:23:54;;;;;;;13.43;3.70;;;;;;;;;;5035214;28;20182;-70
2023/08/07 10:26:21;;;;;;;10.90;3.60;;;;;;;;;;5053088;28;20716;-70
2023/08/07 10:28:47;;;;;;;11.00;3.53;;;;;;;;;;5053473;28;20248;-70
2023/08/07 10:31:14;;;;;;;10.43;3.33;;;;;;;;;;5053202;28;20210;-70
2023/08/07 10:33:41;;;;;;;9.60;3.40;;;;;;;;;;5053249;28;20193;-70
2023/08/07 10:36:10;;;;;;;8.30;3.70;;;;;;;;;;5039892;28;20202;-70
2023/08/07 10:38:37;;;;;;;11.47;3.87;;;;;;;;;;5056552;28;20178;-69
2023/08/07 10:41:06;;;;;;;9.43;3.33;;;;;;;;;;5056563;28;20236;-70
2023/08/07 10:43:38;;;;;;;12.30;4.00;;;;;;;;;;5056758;28;20189;-71
2023/08/07 10:46:09;;;;;;;13.50;4.50;;;;;;;;;;5056446;28;20198;-71
2023/08/07 10:48:38;;;;;;;9.67;4.23;;;;;;;;;;5056269;28;20178;-71
2023/08/07 10:51:05;;;;;;;14.80;4.67;;;;;;;;;;5038219;28;20207;-71
2023/08/07 10:53:31;;;;;;;14.90;5.10;;;;;;;;;;5038396;28;20236;-71
2023/08/07 10:55:58;;;;;;;11.43;5.30;;;;;;;;;;5038084;28;20206;-71
2023/08/07 10:58:25;;;;;;;17.63;5.83;;;;;;;;;;5038073;28;20178;-71
2023/08/07 11:00:52;;;;;;;11.87;4.83;;;;;;;;;;5038150;28;20667;-71
2023/08/07 11:03:36;;;;;;;13.47;4.90;;;;;;;;;;5038168;28;20235;-72
2023/08/07 11:06:02;;;;;;;10.97;5.30;;;;;;;;;;5056186;28;20250;-72
2023/08/07 11:08:29;;;;;;;13.83;5.57;;;;;;;;;;5056011;28;20662;-72
2023/08/07 11:10:56;;;;;;;15.57;6.00;;;;;;;;;;5056832;28;20210;-72
2023/08/07 11:13:21;;;;;;;8.30;3.43;;;;;;;;;;5055856;28;20309;-71
2023/08/07 11:15:47;;;;;;;9.47;3.23;;;;;;;;;;5056516;28;20639;-73
2023/08/07 11:18:14;;;;;;;13.00;4.23;;;;;;;;;;5056202;28;20175;-72
2023/08/07 11:20:40;;;;;;;6.67;3.40;;;;;;;;;;5056167;28;20174;-71
2023/08/07 11:23:06;;;;;;;8.47;3.27;;;;;;;;;;5055894;28;20225;-71
2023/08/07 11:25:32;;;;;;;11.90;3.60;;;;;;;;;;5055456;28;20652;-71
2023/08/07 11:27:59;;;;;;;8.53;3.07;;;;;;;;;;5056740;28;20178;-71
2023/08/07 11:30:25;;;;;;;10.90;3.77;;;;;;;;;;5037840;28;20214;-71
2023/08/07 11:32:51;;;;;;;10.33;3.40;;;;;;;;;;5055915;28;20174;-71
2023/08/07 11:35:17;;;;;;;9.90;3.60;;;;;;;;;;5055497;28;20181;-71
2023/08/07 11:37:47;;;;;;;9.43;3.50;;;;;;;;;;5055481;28;20179;-71
2023/08/07 11:40:13;;;;;;;9.47;4.07;;;;;;;;;;5055409;28;20185;-71
2023/08/07 11:42:39;;;;;;;;;;;;;;;;;;5055927;28;20415;-70
2023/08/07 11:45:05;;;;;;;;;;;;;;;;;;5055903;28;19905;-71
2023/08/07 11:47:32;;;;;;;;;;;;;;;;;;5055181;28;19983;-70
2023/08/07 11:49:58;;;;;;;;;;;;;;;;;;5055858;28;19919;-71
2023/08/07 11:52:24;;;;;;;;;;;;;;;;;;5056172;28;19904;-70
2023/08/07 11:54:50;;;;;;;;;;;;;;;;;;5055870;28;19912;-69
2023/08/07 11:57:16;;;;;;;;;;;;;;;;;;5056018;28;19905;-70
2023/08/07 11:59:42;;;;;;;;;;;;;;;;;;5055607;28;20376;-70
2023/08/07 12:02:08;;;;;;;;;;;;;;;;;;5055551;28;19904;-70
2023/08/07 12:04:34;;;;;;;;;;;;;;;;;;5055381;28;19904;-70
2023/08/07 12:07:00;;;;;;;7.97;2.80;;;;;;;;;;5055151;28;20192;-69
2023/08/07 12:09:26;;;;;;;8.27;2.93;;;;;;;;;;5054828;28;20258;-70
2023/08/07 12:11:56;;;;;;;9.17;2.73;;;;;;;;;;5036974;28;20615;-70
2023/08/07 12:14:22;;;;;;;8.77;3.13;;;;;;;;;;5055148;28;20270;-70
2023/08/07 12:16:49;;;;;;;7.90;3.33;;;;;;;;;;5054631;28;20226;-70
2023/08/07 12:19:16;;;;;;;7.77;2.90;;;;;;;;;;5054714;28;20182;-69
2023/08/07 12:21:43;;;;;;;10.47;2.67;;;;;;;;;;5037757;28;20199;-69
2023/08/07 12:24:09;;;;;;;5.67;2.83;;;;;;;;;;5054898;28;20261;-70
2023/08/07 12:26:35;;;;;;;6.37;2.83;;;;;;;;;;5054580;28;20761;-69
2023/08/07 12:29:01;;;;;;;9.40;2.90;;;;;;;;;;5054558;28;20257;-69
2023/08/07 12:31:27;;;;;;;4.30;2.10;;;;;;;;;;5054753;28;20209;-70
2023/08/07 12:33:53;;;;;;;7.63;2.67;;;;;;;;;;5036618;28;20181;-69
2023/08/07 12:36:19;;;;;;;9.03;2.80;;;;;;;;;;5054302;28;20202;-69
2023/08/07 12:38:45;;;;;;;7.17;2.60;;;;;;;;;;5054310;28;20193;-69
2023/08/07 12:41:11;;;;;;;7.53;2.83;;;;;;;;;;5036580;28;20186;-69
2023/08/07 12:43:36;;;;;;;5.57;2.47;;;;;;;;;;5054497;28;20683;-69
2023/08/07 12:46:02;;;;;;;7.13;2.40;;;;;;;;;;5054191;28;20198;-68
2023/08/07 12:48:28;;;;;;;6.90;2.67;;;;;;;;;;5054133;28;20257;-69
2023/08/07 12:50:54;;;;;;;8.83;3.20;;;;;;;;;;5036088;28;20206;-69
2023/08/07 12:53:20;;;;;;;6.70;2.20;;;;;;;;;;5054324;28;20179;-69
2023/08/07 12:55:46;;;;;;;10.10;2.47;;;;;;;;;;5036129;28;20247;-69
2023/08/07 12:58:12;;;;;;;11.37;2.67;;;;;;;;;;5053771;28;20178;-69
2023/08/07 13:00:38;;;;;;;6.27;2.60;;;;;;;;;;5053056;28;20225;-69
2023/08/07 13:03:04;;;;;;;4.87;2.57;;;;;;;;;;5053841;28;20186;-69
2023/08/07 13:05:31;;;;;;;9.93;2.97;;;;;;;;;;5035831;28;20186;-70
2023/08/07 13:07:58;;;;;;;7.03;2.70;;;;;;;;;;5035950;28;20179;-69
2023/08/07 13:10:24;;;;;;;8.27;2.20;;;;;;;;;;5053700;28;20205;-70
2023/08/07 13:12:50;;;;;;;4.63;2.33;;;;;;;;;;5035681;28;20533;-69
2023/08/07 13:15:17;;;;;;;9.87;2.43;;;;;;;;;;5036679;28;20182;-69
2023/08/07 13:17:44;;;;;;;4.23;2.20;;;;;;;;;;5053588;28;20593;-69
2023/08/07 13:20:12;;;;;;;5.03;2.53;;;;;;;;;;5035898;28;20182;-69
2023/08/07 13:22:39;;;;;;;5.60;2.50;;;;;;;;;;5053874;28;20179;-69
2023/08/07 13:25:07;;;;;;;6.00;2.47;;;;;;;;;;5053719;28;20189;-68
2023/08/07 13:27:33;;;;;;;8.43;2.90;;;;;;;;;;5035488;28;20218;-68
2023/08/07 13:29:59;;;;;;;7.13;2.57;;;;;;;;;;5053868;28;20198;-68
2023/08/07 13:32:28;;;;;;;5.27;2.20;;;;;;;;;;5054052;28;20655;-69
2023/08/07 13:34:54;;;;;;;6.60;2.93;;;;;;;;;;5053880;28;20178;-69
2023/08/07 13:37:20;;;;;;;5.70;2.53;;;;;;;;;;5053949;28;20265;-69
2023/08/07 13:39:49;;;;;;;4.83;2.70;;;;;;;;;;5053472;28;20190;-69
2023/08/07 13:42:15;;;;;;;4.73;2.70;;;;;;;;;;5053460;28;20183;-69
2023/08/07 13:44:41;;;;;;;8.83;3.67;;;;;;;;;;5035596;28;20205;-69
2023/08/07 13:47:07;;;;;;;5.73;3.03;;;;;;;;;;5053589;28;20230;-69
2023/08/07 13:49:33;;;;;;;10.67;3.33;;;;;;;;;;5053148;28;20202;-69
2023/08/07 13:51:59;;;;;;;9.33;3.20;;;;;;;;;;5053561;28;20678;-69
2023/08/07 13:54:25;;;;;;;3.83;2.93;;;;;;;;;;5035310;28;20203;-69
2023/08/07 13:56:51;;;;;;;4.90;2.47;;;;;;;;;;5035177;28;20202;-70
2023/08/07 13:59:17;;;;;;;4.83;2.37;;;;;;;;;;5053319;28;20236;-69
2023/08/07 14:01:43;;;;;;;8.30;2.70;;;;;;;;;;5053272;28;20193;-69
2023/08/07 14:04:09;;;;;;;5.80;2.90;;;;;;;;;;5035262;28;20186;-68
2023/08/07 14:06:35;;;;;;;4.00;3.00;;;;;;;;;;5053088;28;20202;-68
2023/08/07 14:09:01;;;;;;;5.73;2.60;;;;;;;;;;5053336;28;20236;-68
2023/08/07 14:11:30;;;;;;;6.30;2.67;;;;;;;;;;5056321;28;20206;-68
2023/08/07 14:13:59;;;;;;;4.80;2.40;;;;;;;;;;5057398;28;20178;-68
2023/08/07 14:16:25;;;;;;;5.83;3.17;;;;;;;;;;5057279;28;20320;-68
2023/08/07 14:18:51;;;;;;;5.90;2.60;;;;;;;;;;5057277;28;20185;-69
2023/08/07 14:21:18;;;;;;;5.47;2.27;;;;;;;;;;5039134;28;20182;-68
2023/08/07 14:23:45;;;;;;;6.57;3.10;;;;;;;;;;5039196;28;20236;-68
2023/08/07 14:26:12;;;;;;;4.33;2.40;;;;;;;;;;5057020;28;20260;-67
2023/08/07 14:28:38;;;;;;;5.20;2.17;;;;;;;;;;5056831;28;20175;-69
2023/08/07 14:31:07;;;;;;;4.10;2.07;;;;;;;;;;5056793;28;20585;-69